sensor_id;sensor_type;location;lat;lon;timestamp;pressure;altitude;pressure_sealevel;temperature;humidity
55517;BME280;41724;51.176;-0.708;2023-10-19T00:01:07;98214.33;;;12.64;100.00
55517;BME280;41724;51.176;-0.708;2023-10-19T00:03:34;98219.87;;;12.95;100.00
55517;BME280;41724;51.176;-0.708;2023-10-19T00:06:02;98217.29;;;13.44;100.00
55517;BME280;41724;51.176;-0.708;2023-10-19T00:08:29;98212.39;;;13.12;100.00
55517;BME280;41724;51.176;-0.708;2023-10-19T00:10:55;98210.42;;;12.61;100.00
55517;BME280;41724;51.176;-0.708;2023-10-19T00:13:22;98211.44;;;13.48;100.00
55517;BME280;41724;51.176;-0.708;2023-10-19T00:15:49;98211.36;;;12.67;100.00
55517;BME280;41724;51.176;-0.708;2023-10-19T00:18:17;98210.95;;;13.61;100.00
55517;BME280;41724;51.176;-0.708;2023-10-19T00:20:46;98209.51;;;12.87;100.00
55517;BME280;41724;51.176;-0.708;2023-10-19T00:23:14;98206.05;;;12.78;100.00
55517;BME280;41724;51.176;-0.708;2023-10-19T00:25:41;98206.48;;;12.68;100.00
55517;BME280;41724;51.176;-0.708;2023-10-19T00:28:08;98204.22;;;12.71;100.00
55517;BME280;41724;51.176;-0.708;2023-10-19T00:30:35;98210.63;;;13.50;100.00
55517;BME280;41724;51.176;-0.708;2023-10-19T00:33:04;98207.66;;;13.18;100.00
55517;BME280;41724;51.176;-0.708;2023-10-19T00:35:34;98200.71;;;13.31;100.00
55517;BME280;41724;51.176;-0.708;2023-10-19T00:38:02;98198.42;;;13.26;100.00
55517;BME280;41724;51.176;-0.708;2023-10-19T00:40:29;98204.49;;;12.71;100.00
55517;BME280;41724;51.176;-0.708;2023-10-19T00:42:56;98193.24;;;13.54;100.00
55517;BME280;41724;51.176;-0.708;2023-10-19T00:45:23;98193.51;;;14.25;100.00
55517;BME280;41724;51.176;-0.708;2023-10-19T00:47:50;98195.47;;;14.08;100.00
55517;BME280;41724;51.176;-0.708;2023-10-19T00:50:17;98189.78;;;14.60;100.00
55517;BME280;41724;51.176;-0.708;2023-10-19T00:52:44;98191.48;;;14.63;100.00
55517;BME280;41724;51.176;-0.708;2023-10-19T00:55:13;98178.89;;;15.10;100.00
55517;BME280;41724;51.176;-0.708;2023-10-19T00:57:42;98189.10;;;14.77;100.00
55517;BME280;41724;51.176;-0.708;2023-10-19T01:00:11;98185.30;;;14.53;100.00
55517;BME280;41724;51.176;-0.708;2023-10-19T01:02:38;98182.42;;;15.18;100.00
55517;BME280;41724;51.176;-0.708;2023-10-19T01:05:05;98192.27;;;14.65;100.00
55517;BME280;41724;51.176;-0.708;2023-10-19T01:07:33;98195.44;;;14.26;100.00
55517;BME280;41724;51.176;-0.708;2023-10-19T01:10:02;98187.07;;;15.17;100.00
55517;BME280;41724;51.176;-0.708;2023-10-19T01:12:30;98184.78;;;14.87;100.00
55517;BME280;41724;51.176;-0.708;2023-10-19T01:15:08;98196.49;;;14.82;100.00
55517;BME280;41724;51.176;-0.708;2023-10-19T01:17:36;98197.17;;;14.32;100.00
55517;BME280;41724;51.176;-0.708;2023-10-19T01:20:06;98192.10;;;14.70;100.00
55517;BME280;41724;51.176;-0.708;2023-10-19T01:22:36;98187.53;;;14.76;100.00
55517;BME280;41724;51.176;-0.708;2023-10-19T01:25:04;98185.64;;;14.64;100.00
55517;BME280;41724;51.176;-0.708;2023-10-19T01:27:31;98193.28;;;13.17;100.00
55517;BME280;41724;51.176;-0.708;2023-10-19T01:29:59;98180.32;;;14.77;100.00
55517;BME280;41724;51.176;-0.708;2023-10-19T01:32:30;98188.75;;;14.19;100.00
55517;BME280;41724;51.176;-0.708;2023-10-19T01:34:57;98180.44;;;14.93;100.00
55517;BME280;41724;51.176;-0.708;2023-10-19T01:37:24;98176.76;;;15.29;100.00
55517;BME280;41724;51.176;-0.708;2023-10-19T01:39:51;98179.83;;;14.52;100.00
55517;BME280;41724;51.176;-0.708;2023-10-19T01:42:18;98173.88;;;14.17;100.00
55517;BME280;41724;51.176;-0.708;2023-10-19T01:44:45;98167.22;;;15.14;100.00
55517;BME280;41724;51.176;-0.708;2023-10-19T01:47:12;98175.08;;;15.50;100.00
55517;BME280;41724;51.176;-0.708;2023-10-19T01:49:39;98172.71;;;14.93;100.00
55517;BME280;41724;51.176;-0.708;2023-10-19T01:52:07;98167.56;;;15.53;100.00
55517;BME280;41724;51.176;-0.708;2023-10-19T01:54:34;98165.06;;;15.42;100.00
55517;BME280;41724;51.176;-0.708;2023-10-19T01:57:01;98161.21;;;14.83;100.00
55517;BME280;41724;51.176;-0.708;2023-10-19T01:59:28;98154.70;;;15.21;100.00
55517;BME280;41724;51.176;-0.708;2023-10-19T02:01:56;98154.07;;;14.62;100.00
55517;BME280;41724;51.176;-0.708;2023-10-19T02:04:23;98145.89;;;15.53;100.00
55517;BME280;41724;51.176;-0.708;2023-10-19T02:06:51;98147.03;;;14.82;100.00
55517;BME280;41724;51.176;-0.708;2023-10-19T02:09:17;98140.63;;;15.41;100.00
55517;BME280;41724;51.176;-0.708;2023-10-19T02:11:45;98136.35;;;15.55;100.00
55517;BME280;41724;51.176;-0.708;2023-10-19T02:14:12;98121.05;;;15.30;100.00
55517;BME280;41724;51.176;-0.708;2023-10-19T02:16:40;98123.10;;;15.20;100.00
55517;BME280;41724;51.176;-0.708;2023-10-19T02:19:08;98116.58;;;15.79;100.00
55517;BME280;41724;51.176;-0.708;2023-10-19T02:21:35;98121.04;;;15.80;100.00
55517;BME280;41724;51.176;-0.708;2023-10-19T02:24:02;98118.59;;;15.64;100.00
55517;BME280;41724;51.176;-0.708;2023-10-19T02:26:29;98116.92;;;14.88;100.00
55517;BME280;41724;51.176;-0.708;2023-10-19T02:28:56;98111.67;;;14.93;100.00
55517;BME280;41724;51.176;-0.708;2023-10-19T02:31:24;98109.71;;;16.33;100.00
55517;BME280;41724;51.176;-0.708;2023-10-19T02:33:52;98103.84;;;15.91;100.00
55517;BME280;41724;51.176;-0.708;2023-10-19T02:36:20;98109.14;;;14.80;100.00
55517;BME280;41724;51.176;-0.708;2023-10-19T02:38:47;98105.80;;;15.89;100.00
55517;BME280;41724;51.176;-0.708;2023-10-19T02:41:13;98109.38;;;15.63;100.00
55517;BME280;41724;51.176;-0.708;2023-10-19T02:43:40;98104.20;;;15.43;100.00
55517;BME280;41724;51.176;-0.708;2023-10-19T02:46:07;98093.72;;;14.64;100.00
55517;BME280;41724;51.176;-0.708;2023-10-19T02:48:34;98087.95;;;15.42;100.00
55517;BME280;41724;51.176;-0.708;2023-10-19T02:51:01;98083.98;;;15.98;100.00
55517;BME280;41724;51.176;-0.708;2023-10-19T02:53:28;98078.77;;;16.09;100.00
55517;BME280;41724;51.176;-0.708;2023-10-19T02:55:55;98075.72;;;15.99;100.00
55517;BME280;41724;51.176;-0.708;2023-10-19T02:58:22;98074.17;;;15.90;100.00
55517;BME280;41724;51.176;-0.708;2023-10-19T03:00:49;98078.19;;;15.94;100.00
55517;BME280;41724;51.176;-0.708;2023-10-19T03:03:15;98072.95;;;16.62;100.00
55517;BME280;41724;51.176;-0.708;2023-10-19T03:05:43;98080.72;;;16.59;100.00
55517;BME280;41724;51.176;-0.708;2023-10-19T03:08:10;98089.01;;;16.12;100.00
55517;BME280;41724;51.176;-0.708;2023-10-19T03:10:37;98083.72;;;15.46;100.00
55517;BME280;41724;51.176;-0.708;2023-10-19T03:13:04;98080.19;;;16.00;100.00
55517;BME280;41724;51.176;-0.708;2023-10-19T03:15:31;98077.99;;;15.84;100.00
55517;BME280;41724;51.176;-0.708;2023-10-19T03:17:59;98076.01;;;15.97;100.00
55517;BME280;41724;51.176;-0.708;2023-10-19T03:20:26;98071.92;;;15.41;100.00
55517;BME280;41724;51.176;-0.708;2023-10-19T03:22:53;98077.29;;;15.49;100.00
55517;BME280;41724;51.176;-0.708;2023-10-19T03:25:20;98061.52;;;16.14;100.00
55517;BME280;41724;51.176;-0.708;2023-10-19T03:27:47;98059.19;;;16.00;100.00
55517;BME280;41724;51.176;-0.708;2023-10-19T03:30:15;98052.19;;;15.95;100.00
55517;BME280;41724;51.176;-0.708;2023-10-19T03:32:41;98043.53;;;15.93;100.00
55517;BME280;41724;51.176;-0.708;2023-10-19T03:35:08;98043.50;;;16.29;100.00
55517;BME280;41724;51.176;-0.708;2023-10-19T03:37:35;98040.44;;;16.23;100.00
55517;BME280;41724;51.176;-0.708;2023-10-19T03:40:03;98043.84;;;15.70;100.00
55517;BME280;41724;51.176;-0.708;2023-10-19T03:42:31;98047.87;;;15.72;100.00
55517;BME280;41724;51.176;-0.708;2023-10-19T03:44:58;98040.81;;;15.44;100.00
55517;BME280;41724;51.176;-0.708;2023-10-19T03:47:25;98037.07;;;16.19;100.00
55517;BME280;41724;51.176;-0.708;2023-10-19T03:49:52;98037.79;;;15.85;100.00
55517;BME280;41724;51.176;-0.708;2023-10-19T03:52:19;98032.38;;;14.88;100.00
55517;BME280;41724;51.176;-0.708;2023-10-19T03:54:47;98027.86;;;14.97;100.00
55517;BME280;41724;51.176;-0.708;2023-10-19T03:57:16;98029.57;;;15.68;100.00
55517;BME280;41724;51.176;-0.708;2023-10-19T03:59:44;98021.64;;;15.46;100.00
55517;BME280;41724;51.176;-0.708;2023-10-19T04:02:11;98022.91;;;14.94;100.00
55517;BME280;41724;51.176;-0.708;2023-10-19T04:04:38;98029.22;;;15.44;100.00
55517;BME280;41724;51.176;-0.708;2023-10-19T04:07:05;98021.30;;;15.96;100.00
55517;BME280;41724;51.176;-0.708;2023-10-19T04:09:32;98008.82;;;16.70;100.00
55517;BME280;41724;51.176;-0.708;2023-10-19T04:11:59;98010.50;;;16.94;100.00
55517;BME280;41724;51.176;-0.708;2023-10-19T04:14:27;98005.40;;;17.01;100.00
55517;BME280;41724;51.176;-0.708;2023-10-19T04:16:54;98010.30;;;16.68;100.00
55517;BME280;41724;51.176;-0.708;2023-10-19T04:19:21;98007.09;;;16.43;100.00
55517;BME280;41724;51.176;-0.708;2023-10-19T04:21:48;97997.60;;;16.31;100.00
55517;BME280;41724;51.176;-0.708;2023-10-19T04:24:15;97993.07;;;16.45;100.00
55517;BME280;41724;51.176;-0.708;2023-10-19T04:26:42;97994.52;;;15.34;100.00
55517;BME280;41724;51.176;-0.708;2023-10-19T04:29:08;97987.29;;;14.47;100.00
55517;BME280;41724;51.176;-0.708;2023-10-19T04:31:36;97989.89;;;15.50;100.00
55517;BME280;41724;51.176;-0.708;2023-10-19T04:34:04;97989.86;;;15.62;100.00
55517;BME280;41724;51.176;-0.708;2023-10-19T04:36:31;97991.94;;;15.23;100.00
55517;BME280;41724;51.176;-0.708;2023-10-19T04:38:58;97988.13;;;14.98;100.00
55517;BME280;41724;51.176;-0.708;2023-10-19T04:41:25;97997.96;;;14.44;100.00
55517;BME280;41724;51.176;-0.708;2023-10-19T04:43:52;97981.87;;;14.83;100.00
55517;BME280;41724;51.176;-0.708;2023-10-19T04:46:19;97992.63;;;14.59;100.00
55517;BME280;41724;51.176;-0.708;2023-10-19T04:48:46;97977.55;;;15.47;100.00
55517;BME280;41724;51.176;-0.708;2023-10-19T04:51:13;97979.25;;;14.78;100.00
55517;BME280;41724;51.176;-0.708;2023-10-19T04:53:40;97977.50;;;15.45;100.00
55517;BME280;41724;51.176;-0.708;2023-10-19T04:56:08;97978.71;;;15.56;100.00
55517;BME280;41724;51.176;-0.708;2023-10-19T04:58:35;97972.51;;;15.01;100.00
55517;BME280;41724;51.176;-0.708;2023-10-19T05:01:03;97977.63;;;15.24;100.00
55517;BME280;41724;51.176;-0.708;2023-10-19T05:03:30;97977.49;;;15.18;100.00
55517;BME280;41724;51.176;-0.708;2023-10-19T05:05:56;97969.20;;;14.94;100.00
55517;BME280;41724;51.176;-0.708;2023-10-19T05:08:24;97972.56;;;14.69;100.00
55517;BME280;41724;51.176;-0.708;2023-10-19T05:10:52;97967.01;;;14.44;100.00
55517;BME280;41724;51.176;-0.708;2023-10-19T05:13:20;97971.49;;;14.66;100.00
55517;BME280;41724;51.176;-0.708;2023-10-19T05:15:47;97972.14;;;14.67;100.00
55517;BME280;41724;51.176;-0.708;2023-10-19T05:18:14;97979.32;;;14.85;100.00
55517;BME280;41724;51.176;-0.708;2023-10-19T05:20:41;97976.10;;;14.13;100.00
55517;BME280;41724;51.176;-0.708;2023-10-19T05:23:10;97984.78;;;15.34;100.00
55517;BME280;41724;51.176;-0.708;2023-10-19T05:25:37;97982.64;;;14.66;100.00
55517;BME280;41724;51.176;-0.708;2023-10-19T05:28:05;97972.75;;;14.80;100.00
55517;BME280;41724;51.176;-0.708;2023-10-19T05:30:33;97972.35;;;14.46;100.00
55517;BME280;41724;51.176;-0.708;2023-10-19T05:33:00;97966.43;;;14.55;100.00
55517;BME280;41724;51.176;-0.708;2023-10-19T05:35:29;97964.20;;;15.60;100.00
55517;BME280;41724;51.176;-0.708;2023-10-19T05:37:56;97964.31;;;15.18;100.00
55517;BME280;41724;51.176;-0.708;2023-10-19T05:40:23;97966.86;;;14.98;100.00
55517;BME280;41724;51.176;-0.708;2023-10-19T05:42:50;97962.27;;;15.50;100.00
55517;BME280;41724;51.176;-0.708;2023-10-19T05:45:17;97959.14;;;14.75;100.00
55517;BME280;41724;51.176;-0.708;2023-10-19T05:47:44;97963.94;;;14.80;100.00
55517;BME280;41724;51.176;-0.708;2023-10-19T05:50:11;97957.43;;;15.41;100.00
55517;BME280;41724;51.176;-0.708;2023-10-19T05:52:38;97958.36;;;15.02;100.00
55517;BME280;41724;51.176;-0.708;2023-10-19T05:55:06;97952.78;;;15.39;100.00
55517;BME280;41724;51.176;-0.708;2023-10-19T05:57:33;97946.50;;;15.62;100.00
55517;BME280;41724;51.176;-0.708;2023-10-19T06:00:00;97943.12;;;16.27;100.00
55517;BME280;41724;51.176;-0.708;2023-10-19T06:02:26;97949.64;;;15.55;100.00
55517;BME280;41724;51.176;-0.708;2023-10-19T06:04:53;97952.84;;;15.20;100.00
55517;BME280;41724;51.176;-0.708;2023-10-19T06:07:20;97951.82;;;14.63;100.00
55517;BME280;41724;51.176;-0.708;2023-10-19T06:09:47;97949.54;;;15.29;100.00
55517;BME280;41724;51.176;-0.708;2023-10-19T06:12:14;97950.98;;;15.45;100.00
55517;BME280;41724;51.176;-0.708;2023-10-19T06:14:41;97945.32;;;14.98;100.00
55517;BME280;41724;51.176;-0.708;2023-10-19T06:17:08;97958.98;;;15.09;100.00
55517;BME280;41724;51.176;-0.708;2023-10-19T06:19:35;97969.91;;;14.17;100.00
55517;BME280;41724;51.176;-0.708;2023-10-19T06:22:02;97965.79;;;14.31;100.00
55517;BME280;41724;51.176;-0.708;2023-10-19T06:24:29;97961.34;;;14.86;100.00
55517;BME280;41724;51.176;-0.708;2023-10-19T06:26:56;97965.68;;;15.29;100.00
55517;BME280;41724;51.176;-0.708;2023-10-19T06:29:23;97962.30;;;14.88;100.00
55517;BME280;41724;51.176;-0.708;2023-10-19T06:31:49;97979.75;;;15.04;100.00
55517;BME280;41724;51.176;-0.708;2023-10-19T06:34:16;97968.58;;;15.23;100.00
55517;BME280;41724;51.176;-0.708;2023-10-19T06:36:43;97966.39;;;15.07;100.00
55517;BME280;41724;51.176;-0.708;2023-10-19T06:39:09;97964.92;;;15.51;100.00
55517;BME280;41724;51.176;-0.708;2023-10-19T06:41:36;97964.62;;;15.87;100.00
55517;BME280;41724;51.176;-0.708;2023-10-19T06:44:03;97968.33;;;16.32;100.00
55517;BME280;41724;51.176;-0.708;2023-10-19T06:46:31;97968.53;;;16.40;100.00
55517;BME280;41724;51.176;-0.708;2023-10-19T06:48:59;97970.17;;;16.24;100.00
55517;BME280;41724;51.176;-0.708;2023-10-19T06:51:26;97962.46;;;16.61;100.00
55517;BME280;41724;51.176;-0.708;2023-10-19T06:53:54;97967.83;;;15.91;100.00
55517;BME280;41724;51.176;-0.708;2023-10-19T06:56:21;97971.65;;;15.84;100.00
55517;BME280;41724;51.176;-0.708;2023-10-19T06:58:48;97966.17;;;16.20;100.00
55517;BME280;41724;51.176;-0.708;2023-10-19T07:01:15;97967.83;;;15.99;100.00
55517;BME280;41724;51.176;-0.708;2023-10-19T07:03:42;97965.54;;;16.48;100.00
55517;BME280;41724;51.176;-0.708;2023-10-19T07:06:09;97965.23;;;16.17;100.00
55517;BME280;41724;51.176;-0.708;2023-10-19T07:08:36;97970.91;;;16.06;100.00
55517;BME280;41724;51.176;-0.708;2023-10-19T07:11:05;97973.91;;;15.83;100.00
55517;BME280;41724;51.176;-0.708;2023-10-19T07:13:32;97964.28;;;16.25;100.00
55517;BME280;41724;51.176;-0.708;2023-10-19T07:16:00;97970.03;;;16.52;100.00
55517;BME280;41724;51.176;-0.708;2023-10-19T07:18:27;97966.44;;;15.81;100.00
55517;BME280;41724;51.176;-0.708;2023-10-19T07:20:54;97965.06;;;16.77;100.00
55517;BME280;41724;51.176;-0.708;2023-10-19T07:23:21;97964.89;;;16.65;100.00
55517;BME280;41724;51.176;-0.708;2023-10-19T07:25:49;97960.36;;;16.08;100.00
55517;BME280;41724;51.176;-0.708;2023-10-19T07:28:17;97960.14;;;16.43;100.00
55517;BME280;41724;51.176;-0.708;2023-10-19T07:30:44;97971.79;;;16.58;100.00
55517;BME280;41724;51.176;-0.708;2023-10-19T07:33:13;97964.58;;;16.85;100.00
55517;BME280;41724;51.176;-0.708;2023-10-19T07:35:40;97964.94;;;16.81;100.00
55517;BME280;41724;51.176;-0.708;2023-10-19T07:38:08;97960.23;;;16.08;100.00
55517;BME280;41724;51.176;-0.708;2023-10-19T07:40:35;97963.05;;;16.78;100.00
55517;BME280;41724;51.176;-0.708;2023-10-19T07:43:02;97961.56;;;16.06;100.00
55517;BME280;41724;51.176;-0.708;2023-10-19T07:45:29;97960.12;;;16.86;100.00
55517;BME280;41724;51.176;-0.708;2023-10-19T07:47:57;97956.60;;;17.28;100.00
55517;BME280;41724;51.176;-0.708;2023-10-19T07:50:24;97963.74;;;16.53;100.00
55517;BME280;41724;51.176;-0.708;2023-10-19T07:52:52;97959.73;;;16.78;100.00
55517;BME280;41724;51.176;-0.708;2023-10-19T07:55:22;97969.97;;;16.22;100.00
55517;BME280;41724;51.176;-0.708;2023-10-19T07:57:50;97963.65;;;16.18;100.00
55517;BME280;41724;51.176;-0.708;2023-10-19T08:00:19;97957.14;;;16.11;100.00
55517;BME280;41724;51.176;-0.708;2023-10-19T08:02:47;97956.34;;;16.02;100.00
55517;BME280;41724;51.176;-0.708;2023-10-19T08:05:16;97951.73;;;16.40;100.00
55517;BME280;41724;51.176;-0.708;2023-10-19T08:07:43;97955.45;;;17.06;100.00
55517;BME280;41724;51.176;-0.708;2023-10-19T08:10:11;97950.17;;;16.75;100.00
55517;BME280;41724;51.176;-0.708;2023-10-19T08:12:39;97952.07;;;17.68;97.78
55517;BME280;41724;51.176;-0.708;2023-10-19T08:15:07;97951.95;;;17.04;97.99
55517;BME280;41724;51.176;-0.708;2023-10-19T08:17:34;97947.80;;;16.45;100.00
55517;BME280;41724;51.176;-0.708;2023-10-19T08:20:01;97947.36;;;16.89;100.00
55517;BME280;41724;51.176;-0.708;2023-10-19T08:22:28;97946.42;;;17.02;99.46
55517;BME280;41724;51.176;-0.708;2023-10-19T08:24:55;97950.21;;;17.34;97.43
55517;BME280;41724;51.176;-0.708;2023-10-19T08:27:22;97951.41;;;17.12;98.89
55517;BME280;41724;51.176;-0.708;2023-10-19T08:29:49;97950.56;;;16.87;100.00
55517;BME280;41724;51.176;-0.708;2023-10-19T08:32:16;97948.41;;;17.90;93.86
55517;BME280;41724;51.176;-0.708;2023-10-19T08:34:43;97950.71;;;16.90;97.81
55517;BME280;41724;51.176;-0.708;2023-10-19T08:37:11;97947.07;;;18.29;94.21
55517;BME280;41724;51.176;-0.708;2023-10-19T08:39:37;97949.10;;;17.49;96.32
55517;BME280;41724;51.176;-0.708;2023-10-19T08:42:05;97949.22;;;17.87;94.92
55517;BME280;41724;51.176;-0.708;2023-10-19T08:44:32;97949.90;;;17.25;97.35
55517;BME280;41724;51.176;-0.708;2023-10-19T08:47:00;97949.09;;;18.04;94.28
55517;BME280;41724;51.176;-0.708;2023-10-19T08:49:27;97949.30;;;17.68;94.10
55517;BME280;41724;51.176;-0.708;2023-10-19T08:51:55;97952.43;;;17.62;96.57
55517;BME280;41724;51.176;-0.708;2023-10-19T08:54:25;97957.26;;;17.22;98.29
55517;BME280;41724;51.176;-0.708;2023-10-19T08:56:52;97959.47;;;15.95;100.00
55517;BME280;41724;51.176;-0.708;2023-10-19T08:59:20;97953.74;;;16.87;100.00
55517;BME280;41724;51.176;-0.708;2023-10-19T09:01:47;97950.69;;;17.26;100.00
55517;BME280;41724;51.176;-0.708;2023-10-19T09:04:14;97954.23;;;18.30;96.59
55517;BME280;41724;51.176;-0.708;2023-10-19T09:06:42;97950.09;;;18.66;94.65
55517;BME280;41724;51.176;-0.708;2023-10-19T09:09:09;97950.47;;;18.00;92.83
55517;BME280;41724;51.176;-0.708;2023-10-19T09:11:36;97950.19;;;17.87;95.83
55517;BME280;41724;51.176;-0.708;2023-10-19T09:14:03;97955.34;;;18.19;95.28
55517;BME280;41724;51.176;-0.708;2023-10-19T09:16:30;97953.67;;;17.64;96.23
55517;BME280;41724;51.176;-0.708;2023-10-19T09:18:57;97950.44;;;18.26;93.56
55517;BME280;41724;51.176;-0.708;2023-10-19T09:21:24;97948.11;;;18.20;93.35
55517;BME280;41724;51.176;-0.708;2023-10-19T09:23:51;97943.94;;;18.38;93.50
55517;BME280;41724;51.176;-0.708;2023-10-19T09:26:19;97942.93;;;19.34;91.39
55517;BME280;41724;51.176;-0.708;2023-10-19T09:28:48;97941.03;;;19.36;92.19
55517;BME280;41724;51.176;-0.708;2023-10-19T09:31:15;97939.62;;;19.83;88.14
55517;BME280;41724;51.176;-0.708;2023-10-19T09:33:44;97940.88;;;19.75;86.25
55517;BME280;41724;51.176;-0.708;2023-10-19T09:36:12;97938.50;;;19.98;85.57
55517;BME280;41724;51.176;-0.708;2023-10-19T09:38:39;97943.63;;;19.66;85.47
55517;BME280;41724;51.176;-0.708;2023-10-19T09:41:07;97945.34;;;19.99;84.20
55517;BME280;41724;51.176;-0.708;2023-10-19T09:43:37;97943.59;;;20.81;82.08
55517;BME280;41724;51.176;-0.708;2023-10-19T09:46:07;97944.05;;;20.49;82.00
55517;BME280;41724;51.176;-0.708;2023-10-19T09:48:38;97943.43;;;20.77;83.75
55517;BME280;41724;51.176;-0.708;2023-10-19T09:51:06;97940.93;;;19.87;84.81
55517;BME280;41724;51.176;-0.708;2023-10-19T09:53:33;97945.56;;;20.06;84.40
55517;BME280;41724;51.176;-0.708;2023-10-19T09:56:02;97937.80;;;20.64;80.86
55517;BME280;41724;51.176;-0.708;2023-10-19T09:58:35;97937.42;;;20.86;80.74
55517;BME280;41724;51.176;-0.708;2023-10-19T10:01:02;97940.18;;;20.24;83.84
55517;BME280;41724;51.176;-0.708;2023-10-19T10:03:49;97932.04;;;20.30;84.84
55517;BME280;41724;51.176;-0.708;2023-10-19T10:06:18;97930.43;;;21.09;82.24
55517;BME280;41724;51.176;-0.708;2023-10-19T10:08:53;97936.16;;;20.34;83.84
55517;BME280;41724;51.176;-0.708;2023-10-19T10:11:22;97935.50;;;20.94;84.92
55517;BME280;41724;51.176;-0.708;2023-10-19T10:13:50;97934.41;;;21.29;81.50
55517;BME280;41724;51.176;-0.708;2023-10-19T10:16:19;97930.54;;;21.52;81.90
55517;BME280;41724;51.176;-0.708;2023-10-19T10:18:49;97939.01;;;20.26;78.50
55517;BME280;41724;51.176;-0.708;2023-10-19T10:21:18;97942.65;;;19.60;83.07
55517;BME280;41724;51.176;-0.708;2023-10-19T10:23:48;97942.14;;;19.94;82.70
55517;BME280;41724;51.176;-0.708;2023-10-19T10:26:18;97945.24;;;20.01;83.95
55517;BME280;41724;51.176;-0.708;2023-10-19T10:28:47;97945.80;;;19.95;83.56
55517;BME280;41724;51.176;-0.708;2023-10-19T10:31:19;97936.42;;;19.62;84.58
55517;BME280;41724;51.176;-0.708;2023-10-19T10:33:49;97935.45;;;18.60;87.81
55517;BME280;41724;51.176;-0.708;2023-10-19T10:36:17;97937.20;;;18.85;91.03
55517;BME280;41724;51.176;-0.708;2023-10-19T10:38:51;97937.19;;;19.38;87.07
55517;BME280;41724;51.176;-0.708;2023-10-19T10:41:21;97936.58;;;20.14;85.50
55517;BME280;41724;51.176;-0.708;2023-10-19T10:45:19;97939.87;;;20.27;85.25
55517;BME280;41724;51.176;-0.708;2023-10-19T10:47:46;97934.98;;;19.82;86.16
55517;BME280;41724;51.176;-0.708;2023-10-19T10:50:19;97928.25;;;20.33;83.75
55517;BME280;41724;51.176;-0.708;2023-10-19T10:52:46;97925.37;;;20.86;82.57
55517;BME280;41724;51.176;-0.708;2023-10-19T10:55:14;97930.51;;;20.98;81.26
55517;BME280;41724;51.176;-0.708;2023-10-19T10:57:42;97924.66;;;20.76;81.85
55517;BME280;41724;51.176;-0.708;2023-10-19T11:00:11;97923.63;;;19.97;84.56
55517;BME280;41724;51.176;-0.708;2023-10-19T11:02:38;97918.33;;;20.47;84.54
55517;BME280;41724;51.176;-0.708;2023-10-19T11:05:06;97917.23;;;20.14;82.87
55517;BME280;41724;51.176;-0.708;2023-10-19T11:07:34;97915.16;;;21.20;81.42
55517;BME280;41724;51.176;-0.708;2023-10-19T11:10:01;97914.72;;;20.82;82.23
55517;BME280;41724;51.176;-0.708;2023-10-19T11:12:28;97907.97;;;20.42;82.18
55517;BME280;41724;51.176;-0.708;2023-10-19T11:14:56;97907.01;;;20.27;82.81
55517;BME280;41724;51.176;-0.708;2023-10-19T11:17:24;97906.01;;;19.13;88.24
55517;BME280;41724;51.176;-0.708;2023-10-19T11:19:50;97907.54;;;18.92;89.13
55517;BME280;41724;51.176;-0.708;2023-10-19T11:22:17;97908.26;;;19.08;87.33
55517;BME280;41724;51.176;-0.708;2023-10-19T11:24:45;97913.93;;;18.70;91.02
55517;BME280;41724;51.176;-0.708;2023-10-19T11:27:12;97908.35;;;18.37;93.22
55517;BME280;41724;51.176;-0.708;2023-10-19T11:29:39;97902.38;;;18.08;95.14
55517;BME280;41724;51.176;-0.708;2023-10-19T11:32:21;97904.68;;;18.30;94.12
55517;BME280;41724;51.176;-0.708;2023-10-19T11:34:48;97900.77;;;18.97;91.19
55517;BME280;41724;51.176;-0.708;2023-10-19T11:37:15;97901.19;;;18.27;93.18
55517;BME280;41724;51.176;-0.708;2023-10-19T11:39:42;97898.75;;;18.58;91.74
55517;BME280;41724;51.176;-0.708;2023-10-19T11:42:09;97900.25;;;19.48;89.47
55517;BME280;41724;51.176;-0.708;2023-10-19T11:44:36;97894.59;;;19.23;91.72
55517;BME280;41724;51.176;-0.708;2023-10-19T11:47:03;97893.08;;;18.40;94.98
55517;BME280;41724;51.176;-0.708;2023-10-19T11:49:31;97885.57;;;17.65;100.00
55517;BME280;41724;51.176;-0.708;2023-10-19T11:51:58;97887.31;;;18.74;96.57
55517;BME280;41724;51.176;-0.708;2023-10-19T11:54:25;97887.80;;;18.87;96.63
55517;BME280;41724;51.176;-0.708;2023-10-19T11:56:52;97887.52;;;19.60;95.96
55517;BME280;41724;51.176;-0.708;2023-10-19T11:59:19;97880.91;;;20.66;92.08
55517;BME280;41724;51.176;-0.708;2023-10-19T12:01:46;97876.46;;;20.29;91.39
55517;BME280;41724;51.176;-0.708;2023-10-19T12:04:14;97873.02;;;20.54;88.15
55517;BME280;41724;51.176;-0.708;2023-10-19T12:06:41;97880.17;;;20.75;90.77
55517;BME280;41724;51.176;-0.708;2023-10-19T12:09:07;97887.30;;;19.64;91.81
55517;BME280;41724;51.176;-0.708;2023-10-19T12:11:34;97892.06;;;19.33;93.95
55517;BME280;41724;51.176;-0.708;2023-10-19T12:14:01;97888.37;;;19.86;90.64
55517;BME280;41724;51.176;-0.708;2023-10-19T12:16:28;97893.98;;;19.41;92.16
55517;BME280;41724;51.176;-0.708;2023-10-19T12:18:55;97889.08;;;19.45;91.45
55517;BME280;41724;51.176;-0.708;2023-10-19T12:21:22;97874.45;;;18.85;94.35
55517;BME280;41724;51.176;-0.708;2023-10-19T12:23:49;97860.33;;;19.83;89.88
55517;BME280;41724;51.176;-0.708;2023-10-19T12:26:16;97856.00;;;18.76;90.61
55517;BME280;41724;51.176;-0.708;2023-10-19T12:28:43;97842.02;;;20.62;91.37
55517;BME280;41724;51.176;-0.708;2023-10-19T12:31:10;97826.23;;;20.96;91.07
55517;BME280;41724;51.176;-0.708;2023-10-19T12:33:38;97821.77;;;20.74;89.00
55517;BME280;41724;51.176;-0.708;2023-10-19T12:36:11;97800.85;;;20.41;86.07
55517;BME280;41724;51.176;-0.708;2023-10-19T12:38:37;97803.74;;;20.93;85.13
55517;BME280;41724;51.176;-0.708;2023-10-19T12:41:04;97805.77;;;20.50;85.74
55517;BME280;41724;51.176;-0.708;2023-10-19T12:43:32;97808.51;;;19.57;93.57
55517;BME280;41724;51.176;-0.708;2023-10-19T12:45:59;97814.63;;;20.00;89.85